Time;durP1;ratioP1;P1;durP2;ratioP2;P2;SDS_P1;SDS_P2;PMS_P1;PMS_P2;Temp;Humidity;BMP_temperature;BMP_pressure;BME280_temperature;BME280_humidity;BME280_pressure;Samples;Min_cycle;Max_cycle;Signal;HPM_P1;HPM_P2
2022/01/31 00:01:34;;;;;;;45.48;15.55;;;;;;;0.93;100.00;99345.08;1671661;85;21004;-81
2022/01/31 00:04:00;;;;;;;42.90;14.78;;;;;;;0.94;100.00;99352.80;1643316;87;21139;-82
2022/01/31 00:06:25;;;;;;;38.50;14.23;;;;;;;0.97;100.00;99346.23;1698102;83;21056;-81
2022/01/31 00:08:52;;;;;;;43.48;15.20;;;;;;;0.97;100.00;99332.97;1698595;84;20938;-82
2022/01/31 00:11:18;;;;;;;38.53;14.58;;;;;;;0.97;100.00;99321.86;1697652;84;21036;-81
2022/01/31 00:13:54;;;;;;;34.92;14.85;;;;;;;0.98;100.00;99325.32;1698356;84;21008;-82
2022/01/31 00:16:17;;;;;;;41.63;15.25;;;;;;;0.99;100.00;99333.55;1697809;84;21041;-81
2022/01/31 00:18:40;;;;;;;41.70;15.18;;;;;;;0.97;100.00;99344.41;1694256;84;21474;-82
2022/01/31 00:21:07;;;;;;;38.28;14.87;;;;;;;0.95;100.00;99331.88;1698167;84;21057;-82
2022/01/31 00:23:33;;;;;;;44.10;16.23;;;;;;;0.93;100.00;99336.59;1698413;84;20993;-81
2022/01/31 00:25:59;;;;;;;42.83;16.17;;;;;;;0.93;100.00;99328.64;1698467;84;21523;-82
2022/01/31 00:28:25;;;;;;;42.23;14.80;;;;;;;0.93;100.00;99318.03;1698527;84;21160;-81
2022/01/31 00:30:51;;;;;;;36.05;13.80;;;;;;;0.94;100.00;99324.14;1691192;84;21016;-82
2022/01/31 00:33:17;;;;;;;39.75;15.15;;;;;;;0.92;100.00;99322.26;1690119;84;21022;-82
2022/01/31 00:35:43;;;;;;;37.25;14.38;;;;;;;0.89;100.00;99322.99;1658349;84;21131;-82
2022/01/31 00:38:09;;;;;;;36.70;14.35;;;;;;;0.88;100.00;99329.34;1690560;84;20908;-82
2022/01/31 00:40:38;;;;;;;36.15;13.83;;;;;;;0.86;100.00;99325.30;1690536;84;21157;-81
2022/01/31 00:43:02;;;;;;;33.63;12.82;;;;;;;0.82;100.00;99325.44;1678233;84;21024;-82
2022/01/31 00:45:31;;;;;;;35.75;13.50;;;;;;;0.76;100.00;99325.83;1631908;86;21035;-82
2022/01/31 00:48:05;;;;;;;33.02;12.43;;;;;;;0.71;100.00;99325.72;1660463;86;21059;-82
2022/01/31 00:50:38;;;;;;;37.17;13.25;;;;;;;0.64;100.00;99321.02;1660422;86;21519;-82
2022/01/31 00:53:01;;;;;;;38.02;13.90;;;;;;;0.59;100.00;99311.11;1656226;86;21566;-82
2022/01/31 00:55:26;;;;;;;41.10;13.78;;;;;;;0.55;100.00;99305.95;1661015;86;20987;-82
2022/01/31 00:57:52;;;;;;;37.20;13.38;;;;;;;0.52;100.00;99302.95;1660878;86;20959;-81
2022/01/31 01:00:18;;;;;;;33.67;12.95;;;;;;;0.51;100.00;99302.67;1660875;86;20900;-81
2022/01/31 01:02:45;;;;;;;37.20;13.32;;;;;;;0.48;100.00;99309.23;1661126;86;22438;-82
2022/01/31 01:05:11;;;;;;;33.65;13.72;;;;;;;0.43;100.00;99301.14;1661128;86;21558;-82
2022/01/31 01:07:37;;;;;;;35.60;13.72;;;;;;;0.39;100.00;99296.81;1660822;86;21536;-82
2022/01/31 01:10:05;;;;;;;32.25;12.73;;;;;;;0.33;100.00;99304.86;1660896;86;21098;-82
2022/01/31 01:12:31;;;;;;;32.60;12.98;;;;;;;0.28;100.00;99302.87;1660905;86;21007;-82
2022/01/31 01:14:57;;;;;;;32.93;12.30;;;;;;;0.23;100.00;99306.70;1660913;86;20891;-82
2022/01/31 01:17:24;;;;;;;35.17;12.63;;;;;;;0.17;100.00;99304.95;1660818;86;21150;-82
2022/01/31 01:19:50;;;;;;;36.98;12.75;;;;;;;0.12;100.00;99300.83;1660933;86;20991;-82
2022/01/31 01:22:16;;;;;;;35.90;12.80;;;;;;;0.06;100.00;99301.23;1660739;86;20947;-82
2022/01/31 01:24:42;;;;;;;31.02;12.35;;;;;;;0.03;100.00;99305.66;1661026;86;20982;-81
2022/01/31 01:27:09;;;;;;;32.93;12.63;;;;;;;0.03;100.00;99302.17;1660834;86;20991;-82
2022/01/31 01:29:35;;;;;;;34.23;11.68;;;;;;;0.00;100.00;99304.77;1663897;85;21209;-81
2022/01/31 01:32:02;;;;;;;33.67;12.63;;;;;;;-0.02;100.00;99316.09;1675654;85;21054;-82
2022/01/31 01:34:32;;;;;;;38.30;13.28;;;;;;;-0.02;100.00;99319.55;1675627;85;21026;-82
2022/01/31 01:36:55;;;;;;;32.93;12.95;;;;;;;-0.01;100.00;99311.08;1671514;85;21523;-82
2022/01/31 01:39:21;;;;;;;42.50;13.18;;;;;;;0.04;100.00;99306.45;1650483;85;20930;-82
2022/01/31 01:41:47;;;;;;;33.13;11.88;;;;;;;0.07;100.00;99304.69;1675352;85;21723;-82
2022/01/31 01:44:13;;;;;;;32.03;11.57;;;;;;;0.11;100.00;99305.84;1675517;85;21068;-82
2022/01/31 01:46:39;;;;;;;40.12;13.43;;;;;;;0.14;100.00;99301.42;1675747;85;20970;-82
2022/01/31 01:49:05;;;;;;;33.90;12.18;;;;;;;0.15;100.00;99293.79;1675554;85;21061;-82
2022/01/31 01:51:31;;;;;;;36.20;12.40;;;;;;;0.14;100.00;99285.53;1675567;85;21743;-82
2022/01/31 01:54:02;;;;;;;38.55;12.80;;;;;;;0.14;100.00;99292.16;1675600;85;21511;-82
2022/01/31 01:56:28;;;;;;;35.92;13.43;;;;;;;0.13;100.00;99286.58;1675571;85;21544;-82
2022/01/31 01:58:54;;;;;;;34.85;11.95;;;;;;;0.14;100.00;99277.06;1675709;85;21070;-82
2022/01/31 02:01:20;;;;;;;34.50;11.90;;;;;;;0.16;100.00;99274.20;1675765;85;20966;-82
2022/01/31 02:03:46;;;;;;;35.73;11.85;;;;;;;0.16;100.00;99255.66;1675682;85;20907;-82
2022/01/31 02:06:12;;;;;;;34.20;12.53;;;;;;;0.16;100.00;99259.11;1675639;85;21784;-82
2022/01/31 02:11:12;;;;;;;34.05;11.73;;;;;;;0.13;100.00;99265.38;1580596;90;21115;-82
2022/01/31 02:13:38;;;;;;;31.62;11.57;;;;;;;0.11;100.00;99265.59;1639817;87;21090;-82
2022/01/31 02:16:09;;;;;;;30.00;11.75;;;;;;;0.11;100.00;99266.91;1639782;87;21585;-81
2022/01/31 02:18:41;;;;;;;35.48;11.28;;;;;;;0.13;100.00;99256.11;1639956;86;21198;-82
2022/01/31 02:21:04;;;;;;;29.87;11.80;;;;;;;0.12;100.00;99251.34;1639703;87;21696;-81
2022/01/31 02:23:31;;;;;;;33.58;11.38;;;;;;;0.10;100.00;99250.75;1639589;87;21134;-81
2022/01/31 02:26:05;;;;;;;30.55;11.65;;;;;;;0.10;100.00;99253.39;1639804;87;21279;-82
2022/01/31 02:28:36;;;;;;;28.42;10.80;;;;;;;0.13;100.00;99250.81;1639801;87;21094;-82
2022/01/31 02:31:04;;;;;;;31.48;10.98;;;;;;;0.16;100.00;99249.04;1617122;87;21986;-82
2022/01/31 02:33:30;;;;;;;36.33;11.43;;;;;;;0.18;100.00;99238.52;1607892;88;21047;-81
2022/01/31 02:36:00;;;;;;;39.73;12.93;;;;;;;0.22;100.00;99232.24;1607640;89;21054;-82
2022/01/31 02:38:28;;;;;;;36.70;12.30;;;;;;;0.26;100.00;99237.89;1607957;89;21690;-81
2022/01/31 02:40:54;;;;;;;33.55;11.35;;;;;;;0.29;100.00;99243.54;1607862;89;20994;-82
2022/01/31 02:43:29;;;;;;;29.70;10.75;;;;;;;0.34;100.00;99242.88;1607913;89;21882;-82
2022/01/31 02:45:56;;;;;;;33.20;11.83;;;;;;;0.36;100.00;99244.79;1607877;89;21604;-82
2022/01/31 02:48:25;;;;;;;31.87;11.80;;;;;;;0.36;100.00;99248.25;1607836;89;21559;-81
2022/01/31 02:50:53;;;;;;;30.97;11.30;;;;;;;0.36;100.00;99243.47;1607947;89;21063;-81
2022/01/31 02:53:28;;;;;;;34.53;11.73;;;;;;;0.38;100.00;99238.73;1559169;92;21596;-81
2022/01/31 02:55:57;;;;;;;37.05;13.13;;;;;;;0.39;100.00;99236.39;1559094;90;21029;-82
2022/01/31 02:58:26;;;;;;;37.38;12.65;;;;;;;0.39;100.00;99238.52;1559243;92;21054;-82
2022/01/31 03:00:54;;;;;;;33.23;12.47;;;;;;;0.40;100.00;99237.47;1559364;91;21105;-81
2022/01/31 03:03:22;;;;;;;33.88;12.75;;;;;;;0.37;100.00;99227.33;1559495;92;21077;-82
2022/01/31 03:05:48;;;;;;;32.45;11.78;;;;;;;0.35;100.00;99236.01;1513589;94;21077;-82
2022/01/31 03:08:14;;;;;;;34.13;11.53;;;;;;;0.34;100.00;99233.08;1528669;91;21060;-81
2022/01/31 03:10:40;;;;;;;34.13;12.03;;;;;;;0.33;100.00;99238.63;1539297;91;20920;-81
2022/01/31 03:13:06;;;;;;;36.17;12.35;;;;;;;0.31;100.00;99229.56;1511504;93;20970;-81
2022/01/31 03:15:33;;;;;;;30.72;11.73;;;;;;;0.31;100.00;99227.44;1565557;90;21683;-81
2022/01/31 03:17:59;;;;;;;30.20;12.50;;;;;;;0.33;100.00;99236.78;1565838;88;21096;-81
2022/01/31 03:20:26;;;;;;;35.75;12.37;;;;;;;0.36;100.00;99238.17;1565455;90;21849;-81
2022/01/31 03:22:53;;;;;;;32.65;12.03;;;;;;;0.38;100.00;99224.16;1565820;90;21514;-81
2022/01/31 03:25:19;;;;;;;36.13;12.70;;;;;;;0.41;100.00;99232.48;1565953;90;21172;-81
2022/01/31 03:27:47;;;;;;;34.53;12.90;;;;;;;0.48;100.00;99232.90;1565726;90;21069;-81
2022/01/31 03:30:22;;;;;;;41.85;13.38;;;;;;;0.53;100.00;99233.00;1567825;89;21605;-82
2022/01/31 03:32:48;;;;;;;43.48;13.32;;;;;;;0.57;100.00;99230.20;1572459;89;21180;-81
2022/01/31 03:35:16;;;;;;;33.95;11.88;;;;;;;0.61;100.00;99226.85;1572479;89;20990;-81
2022/01/31 03:37:42;;;;;;;37.05;13.58;;;;;;;0.66;100.00;99222.20;1572534;89;21072;-82
2022/01/31 03:40:11;;;;;;;33.02;13.22;;;;;;;0.70;100.00;99221.22;1572279;89;21028;-81
2022/01/31 03:42:38;;;;;;;38.73;14.58;;;;;;;0.73;100.00;99218.91;1572184;89;21091;-82
2022/01/31 03:45:08;;;;;;;37.30;12.28;;;;;;;0.77;100.00;99213.45;1572501;89;21103;-82
2022/01/31 03:47:36;;;;;;;34.10;13.60;;;;;;;0.81;100.00;99219.10;1572358;89;21610;-82
2022/01/31 03:50:05;;;;;;;34.83;12.82;;;;;;;0.82;100.00;99216.20;1605534;86;21138;-82
2022/01/31 03:52:31;;;;;;;38.00;12.75;;;;;;;0.86;100.00;99209.95;1651208;86;21073;-82
2022/01/31 03:54:57;;;;;;;34.33;12.95;;;;;;;0.88;100.00;99210.50;1651196;86;20997;-81
2022/01/31 03:57:23;;;;;;;36.65;12.70;;;;;;;0.89;100.00;99212.94;1651521;86;21812;-82
2022/01/31 03:59:49;;;;;;;35.90;13.13;;;;;;;0.93;100.00;99218.58;1651404;86;20941;-81
2022/01/31 04:02:15;;;;;;;36.50;12.45;;;;;;;0.96;100.00;99212.02;1661303;85;20913;-82
2022/01/31 04:04:41;;;;;;;41.15;13.60;;;;;;;0.99;100.00;99216.33;1681855;85;20893;-82
2022/01/31 04:07:07;;;;;;;30.90;11.55;;;;;;;1.02;100.00;99216.39;1681606;85;20992;-81
2022/01/31 04:09:32;;;;;;;35.35;12.07;;;;;;;1.04;100.00;99212.47;1681662;85;20966;-81
2022/01/31 04:11:58;;;;;;;31.90;12.40;;;;;;;1.07;100.00;99208.55;1681854;85;21062;-81
2022/01/31 04:14:27;;;;;;;38.00;13.03;;;;;;;1.11;100.00;99207.04;1681778;85;20924;-81
2022/01/31 04:16:56;;;;;;;35.33;12.30;;;;;;;1.13;100.00;99208.42;1681592;84;21116;-80
2022/01/31 04:19:24;;;;;;;36.03;12.80;;;;;;;1.15;100.00;99204.23;1681457;84;21080;-82
2022/01/31 04:21:50;;;;;;;36.17;12.93;;;;;;;1.15;100.00;99198.92;1681622;85;21150;-81
2022/01/31 04:24:22;;;;;;;36.75;13.35;;;;;;;1.18;100.00;99205.09;1681514;85;21596;-82
2022/01/31 04:26:54;;;;;;;38.08;14.28;;;;;;;1.20;100.00;99198.20;1677363;85;21093;-81
2022/01/31 04:29:17;;;;;;;37.70;14.30;;;;;;;1.23;100.00;99193.76;1677268;85;21005;-82
2022/01/31 04:31:44;;;;;;;35.98;13.15;;;;;;;1.26;100.00;99203.38;1689578;82;21036;-81
2022/01/31 04:34:09;;;;;;;31.07;12.58;;;;;;;1.27;100.00;99205.02;1694256;84;21776;-82
2022/01/31 04:36:35;;;;;;;36.80;13.55;;;;;;;1.30;100.00;99204.55;1698155;83;20950;-82
2022/01/31 04:39:03;;;;;;;31.05;12.58;;;;;;;1.33;100.00;99198.77;1698368;83;21526;-82
2022/01/31 04:41:29;;;;;;;36.38;13.43;;;;;;;1.33;100.00;99195.31;1698341;83;21001;-82
2022/01/31 04:43:58;;;;;;;36.00;12.63;;;;;;;1.33;100.00;99189.48;1698463;84;21505;-82
2022/01/31 04:46:23;;;;;;;35.80;12.95;;;;;;;1.35;100.00;99181.27;1697768;84;21047;-82
2022/01/31 04:48:49;;;;;;;37.05;13.28;;;;;;;1.36;100.00;99186.36;1694019;83;20985;-82
2022/01/31 04:51:15;;;;;;;34.88;12.73;;;;;;;1.35;100.00;99182.10;1697560;83;21478;-82
2022/01/31 04:53:41;;;;;;;38.38;13.78;;;;;;;1.38;100.00;99178.67;1698252;83;20902;-82
2022/01/31 04:56:07;;;;;;;38.40;13.43;;;;;;;1.36;100.00;99184.23;1698454;84;21088;-82
2022/01/31 04:58:34;;;;;;;38.00;13.85;;;;;;;1.35;100.00;99182.59;1698484;84;21961;-81
2022/01/31 05:01:00;;;;;;;34.78;13.40;;;;;;;1.33;100.00;99172.76;1698144;84;21021;-82
2022/01/31 05:03:27;;;;;;;40.25;14.83;;;;;;;1.33;100.00;99181.52;1698648;83;20989;-81
2022/01/31 05:05:53;;;;;;;37.40;14.33;;;;;;;1.32;100.00;99180.41;1698249;83;21396;-82
2022/01/31 05:08:26;;;;;;;42.93;15.03;;;;;;;1.31;100.00;99188.91;1698077;84;20933;-82
2022/01/31 05:10:49;;;;;;;33.33;13.35;;;;;;;1.31;100.00;99191.55;1694490;83;20954;-82
2022/01/31 05:13:16;;;;;;;35.45;13.62;;;;;;;1.32;100.00;99197.17;1697961;84;21526;-82
2022/01/31 05:15:45;;;;;;;39.40;14.10;;;;;;;1.32;100.00;99198.99;1697953;83;21521;-82
2022/01/31 05:18:12;;;;;;;40.43;15.43;;;;;;;1.31;100.00;99196.86;1695096;83;21066;-82
2022/01/31 05:20:39;;;;;;;40.73;15.18;;;;;;;1.31;100.00;99191.55;1656571;86;21112;-82
2022/01/31 05:23:06;;;;;;;41.35;14.18;;;;;;;1.31;100.00;99186.77;1644385;87;21157;-82
2022/01/31 05:25:34;;;;;;;41.13;15.30;;;;;;;1.30;100.00;99194.45;1644282;87;21032;-82
2022/01/31 05:28:00;;;;;;;39.83;15.32;;;;;;;1.29;100.00;99201.59;1644350;87;21062;-83
2022/01/31 05:30:26;;;;;;;37.53;14.80;;;;;;;1.28;100.00;99195.20;1648953;84;20998;-83
2022/01/31 05:32:53;;;;;;;40.40;14.75;;;;;;;1.30;100.00;99199.23;1677453;85;21696;-83
2022/01/31 05:35:19;;;;;;;38.05;14.83;;;;;;;1.31;100.00;99199.52;1677614;84;21707;-83
2022/01/31 05:37:45;;;;;;;37.25;15.00;;;;;;;1.33;100.00;99200.63;1677513;85;21574;-84
2022/01/31 05:40:12;;;;;;;40.08;15.65;;;;;;;1.35;100.00;99195.87;1678031;85;21207;-84
2022/01/31 05:42:39;;;;;;;35.13;14.20;;;;;;;1.35;100.00;99197.20;1677781;85;21077;-84
2022/01/31 05:45:07;;;;;;;35.75;14.63;;;;;;;1.37;100.00;99203.08;1677729;85;21029;-83
2022/01/31 05:47:34;;;;;;;33.15;13.10;;;;;;;1.38;100.00;99207.34;1677565;85;21188;-84
2022/01/31 05:50:01;;;;;;;32.75;12.90;;;;;;;1.41;100.00;99211.38;1677606;85;21098;-84
2022/01/31 05:52:27;;;;;;;34.13;12.70;;;;;;;1.41;100.00;99214.84;1677743;85;21037;-85
2022/01/31 05:54:53;;;;;;;29.32;12.05;;;;;;;1.45;100.00;99216.52;1677864;85;21066;-84
2022/01/31 05:57:19;;;;;;;35.08;12.82;;;;;;;1.47;100.00;99217.08;1677859;84;20994;-85
2022/01/31 05:59:45;;;;;;;30.88;12.68;;;;;;;1.48;100.00;99218.71;1677627;84;21950;-84
2022/01/31 06:02:11;;;;;;;32.73;13.03;;;;;;;1.52;100.00;99226.48;1677352;84;20958;-85
2022/01/31 06:04:37;;;;;;;36.40;11.97;;;;;;;1.55;100.00;99222.83;1677691;85;21112;-84
2022/01/31 06:07:03;;;;;;;30.60;12.18;;;;;;;1.58;100.00;99217.05;1677414;84;21017;-85
2022/01/31 06:09:31;;;;;;;35.58;12.30;;;;;;;1.63;100.00;99220.34;1677383;85;21053;-83
2022/01/31 06:12:00;;;;;;;32.70;11.70;;;;;;;1.68;100.00;99220.45;1677166;85;21014;-84
2022/01/31 06:14:26;;;;;;;30.57;11.25;;;;;;;1.73;100.00;99226.37;1676808;85;21077;-84
2022/01/31 06:16:51;;;;;;;28.42;10.60;;;;;;;1.76;100.00;99223.23;1719322;83;20970;-85
2022/01/31 06:19:17;;;;;;;31.55;10.60;;;;;;;1.83;100.00;99224.45;1719437;83;20883;-84
2022/01/31 06:21:44;;;;;;;27.35;10.90;;;;;;;1.82;100.00;99222.29;1722973;83;21055;-84
2022/01/31 06:24:10;;;;;;;27.48;10.95;;;;;;;1.89;100.00;99224.83;1725386;83;21110;-84
2022/01/31 06:26:38;;;;;;;26.27;10.23;;;;;;;1.94;100.00;99216.44;1724840;83;21067;-84
2022/01/31 06:29:04;;;;;;;23.35;9.48;;;;;;;2.03;100.00;99234.14;1657762;86;21529;-84
2022/01/31 06:31:31;;;;;;;26.55;9.68;;;;;;;2.10;100.00;99219.38;1685374;85;21127;-85
2022/01/31 06:33:58;;;;;;;23.10;9.23;;;;;;;2.20;100.00;99217.69;1670757;85;21010;-84
2022/01/31 06:36:24;;;;;;;25.77;9.88;;;;;;;2.34;100.00;99221.38;1657922;86;21012;-84
2022/01/31 06:38:52;;;;;;;25.40;9.55;;;;;;;2.42;100.00;99218.34;1685482;85;20900;-85
2022/01/31 06:41:19;;;;;;;28.23;9.60;;;;;;;2.49;100.00;99222.44;1687443;83;21570;-85
2022/01/31 06:43:46;;;;;;;25.05;10.05;;;;;;;2.55;100.00;99216.69;1677788;83;21030;-87
2022/01/31 06:46:14;;;;;;;24.10;9.30;;;;;;;2.63;100.00;99205.66;1676061;84;21079;-87
2022/01/31 06:48:41;;;;;;;27.02;10.03;;;;;;;2.72;100.00;99209.52;1674501;84;21170;-86
2022/01/31 06:51:08;;;;;;;23.35;9.50;;;;;;;2.83;100.00;99209.69;1680809;84;21498;-86
2022/01/31 06:53:34;;;;;;;23.30;8.93;;;;;;;2.92;100.00;99214.88;1664998;84;20990;-86
2022/01/31 06:56:01;;;;;;;24.15;8.65;;;;;;;3.01;100.00;99216.07;1674480;83;21108;-87
2022/01/31 06:58:28;;;;;;;20.57;8.33;;;;;;;3.08;100.00;99209.23;1644257;85;38199;-87
2022/01/31 07:00:56;;;;;;;21.95;8.20;;;;;;;3.18;100.00;99212.86;1644972;85;21080;-87
2022/01/31 07:03:22;;;;;;;21.62;7.95;;;;;;;3.27;100.00;99211.11;1673850;84;21022;-86
2022/01/31 07:05:49;;;;;;;23.55;9.50;;;;;;;3.28;100.00;99205.52;1674854;85;21013;-87
2022/01/31 07:08:16;;;;;;;20.95;8.23;;;;;;;3.36;100.00;99214.95;1673737;84;21077;-86
2022/01/31 07:13:24;;;;;;;19.57;8.00;;;;;;;3.50;100.00;99211.38;1604573;88;21135;-86
2022/01/31 07:15:41;;;;;;;20.45;7.83;;;;;;;3.60;100.00;99214.98;1604231;87;21252;-85
2022/01/31 07:18:07;;;;;;;20.05;8.28;;;;;;;3.65;100.00;99216.92;1604812;88;21188;-84
2022/01/31 07:20:41;;;;;;;19.85;7.87;;;;;;;3.74;100.00;99210.09;1605419;88;21549;-84
2022/01/31 07:23:17;;;;;;;21.52;8.88;;;;;;;3.85;100.00;99222.98;1597331;88;21090;-85
2022/01/31 07:25:38;;;;;;;23.30;8.35;;;;;;;3.97;100.00;99221.02;1594730;88;21263;-85
2022/01/31 07:28:16;;;;;;;20.20;8.30;;;;;;;3.97;100.00;99213.52;1599169;88;21173;-86
2022/01/31 07:30:47;;;;;;;23.27;8.30;;;;;;;3.98;100.00;99217.28;1572837;91;21044;-87
2022/01/31 07:33:15;;;;;;;19.50;8.28;;;;;;;3.97;100.00;99226.84;1523830;94;21060;-85
2022/01/31 07:35:48;;;;;;;19.73;7.75;;;;;;;3.97;100.00;99229.52;1511769;93;21629;-86
2022/01/31 07:38:14;;;;;;;20.55;8.08;;;;;;;4.02;100.00;99225.05;1518782;93;21573;-86
2022/01/31 07:40:41;;;;;;;21.33;7.85;;;;;;;4.02;100.00;99223.72;1491892;95;21213;-85
2022/01/31 07:43:10;;;;;;;22.48;7.25;;;;;;;3.98;100.00;99224.48;1487800;95;21105;-86
2022/01/31 07:45:39;;;;;;;20.30;7.40;;;;;;;3.96;100.00;99225.25;1498663;93;21105;-86
2022/01/31 07:48:05;;;;;;;18.95;7.40;;;;;;;3.91;100.00;99225.98;1499838;93;21220;-85
2022/01/31 07:50:33;;;;;;;16.67;6.92;;;;;;;3.85;100.00;99231.81;1509060;92;21145;-85
2022/01/31 07:53:01;;;;;;;16.73;7.12;;;;;;;3.85;100.00;99236.31;1524507;92;21104;-84
2022/01/31 07:55:27;;;;;;;17.62;6.90;;;;;;;3.84;100.00;99231.52;1525408;92;21100;-85
2022/01/31 07:57:53;;;;;;;16.90;6.70;;;;;;;3.82;100.00;99233.64;1541577;92;21654;-85
2022/01/31 08:00:19;;;;;;;17.25;7.65;;;;;;;3.81;100.00;99228.02;1527221;92;21093;-85
2022/01/31 08:02:46;;;;;;;23.15;7.97;;;;;;;3.74;100.00;99229.28;1524490;92;21109;-85
2022/01/31 08:05:12;;;;;;;19.55;7.53;;;;;;;3.73;100.00;99234.31;1526803;92;21172;-85
2022/01/31 08:07:38;;;;;;;18.00;6.90;;;;;;;3.70;100.00;99236.94;1531465;92;21736;-85
2022/01/31 08:10:07;;;;;;;16.87;6.90;;;;;;;3.68;100.00;99239.56;1530227;92;21038;-85
2022/01/31 08:12:36;;;;;;;18.80;7.42;;;;;;;3.61;100.00;99237.09;1502249;94;21098;-84
2022/01/31 08:15:07;;;;;;;19.85;6.85;;;;;;;3.55;100.00;99234.89;1550914;90;21466;-85
2022/01/31 08:17:31;;;;;;;21.30;7.45;;;;;;;3.55;100.00;99236.22;1526247;92;21120;-86
2022/01/31 08:19:58;;;;;;;14.73;6.65;;;;;;;3.61;100.00;99231.77;1522323;91;21472;-85
2022/01/31 08:22:24;;;;;;;14.18;6.08;;;;;;;3.67;100.00;99233.97;1568690;91;21096;-85
2022/01/31 08:24:51;;;;;;;15.10;6.08;;;;;;;3.77;100.00;99235.44;1568802;90;21059;-85
2022/01/31 08:27:17;;;;;;;13.03;5.75;;;;;;;3.98;100.00;99222.61;1568271;90;21074;-85
2022/01/31 08:29:43;;;;;;;14.38;5.75;;;;;;;4.19;100.00;99225.49;1573983;87;21108;-85
2022/01/31 08:32:18;;;;;;;15.53;6.58;;;;;;;4.41;100.00;99222.75;1620564;84;21069;-84
2022/01/31 08:37:25;;;;;;;17.87;5.78;;;;;;;4.74;100.00;99223.05;1649794;85;21545;-84
2022/01/31 08:39:51;;;;;;;17.77;6.10;;;;;;;5.00;100.00;99218.17;1649358;85;21625;-86
2022/01/31 08:42:21;;;;;;;13.83;5.90;;;;;;;5.17;100.00;99214.52;1648893;84;21092;-86
2022/01/31 08:44:48;;;;;;;12.88;5.70;;;;;;;5.39;100.00;99213.05;1658604;83;21550;-87
2022/01/31 08:47:16;;;;;;;14.58;5.85;;;;;;;5.66;100.00;99199.00;1646876;85;21549;-87
2022/01/31 08:49:45;;;;;;;14.43;4.97;;;;;;;5.88;100.00;99205.50;1631346;86;21003;-86
2022/01/31 08:52:17;;;;;;;12.68;5.08;;;;;;;5.85;100.00;99200.69;1564903;90;21189;-86
2022/01/31 08:54:43;;;;;;;16.35;5.20;;;;;;;6.07;100.00;99209.05;1565200;90;21112;-86
2022/01/31 08:57:11;;;;;;;12.28;4.78;;;;;;;6.26;100.00;99198.64;1557802;92;21154;-86
2022/01/31 08:59:43;;;;;;;13.68;4.97;;;;;;;6.45;100.00;99195.72;1557792;91;21147;-87
2022/01/31 09:02:13;;;;;;;9.25;4.30;;;;;;;6.69;100.00;99195.19;1557776;92;21068;-86
2022/01/31 09:04:51;;;;;;;10.03;4.00;;;;;;;6.93;100.00;99187.40;1578994;90;21617;-85
2022/01/31 09:07:22;;;;;;;8.10;3.58;;;;;;;7.11;100.00;99202.89;1538768;92;21433;-86
2022/01/31 09:09:53;;;;;;;11.78;3.92;;;;;;;7.21;100.00;99206.10;1465852;96;21151;-87
2022/01/31 09:12:18;;;;;;;9.68;3.80;;;;;;;7.31;100.00;99203.92;1465382;95;21131;-86
2022/01/31 09:14:47;;;;;;;9.85;3.80;;;;;;;7.39;100.00;99207.39;1453516;96;21241;-86
2022/01/31 09:17:13;;;;;;;9.28;4.03;;;;;;;7.45;100.00;99207.09;1458724;96;21177;-85
2022/01/31 09:19:39;;;;;;;8.05;3.70;;;;;;;7.32;100.00;99198.28;1461088;97;21200;-86
2022/01/31 09:22:08;;;;;;;8.68;3.92;;;;;;;7.13;100.00;99200.75;1465776;97;20940;-85
2022/01/31 09:24:38;;;;;;;12.43;4.35;;;;;;;6.93;100.00;99200.78;1466601;97;21652;-85
2022/01/31 09:27:05;;;;;;;9.78;4.37;;;;;;;6.80;100.00;99198.93;1465331;96;21182;-85
2022/01/31 09:29:31;;;;;;;10.30;4.15;;;;;;;6.75;100.00;99197.59;1466424;97;21329;-85
2022/01/31 09:31:59;;;;;;;10.58;4.45;;;;;;;6.66;100.00;99199.20;1453670;96;21181;-86
2022/01/31 09:34:26;;;;;;;9.93;3.60;;;;;;;6.39;100.00;99202.69;1428248;99;21657;-85
2022/01/31 09:36:52;;;;;;;9.53;4.00;;;;;;;6.03;100.00;99205.28;1448565;97;21500;-86
2022/01/31 09:39:27;;;;;;;10.70;3.92;;;;;;;5.78;100.00;99193.42;1455941;97;21103;-84
2022/01/31 09:42:20;;;;;;;9.65;4.05;;;;;;;5.52;100.00;99201.88;1466393;97;21154;-85
2022/01/31 09:47:24;;;;;;;13.43;4.78;;;;;;;5.21;100.00;99207.62;1376543;102;21667;-86
2022/01/31 09:49:53;;;;;;;13.95;4.30;;;;;;;5.01;100.00;99214.97;1424505;98;21738;-84
2022/01/31 09:52:34;;;;;;;11.55;3.98;;;;;;;4.85;100.00;99210.03;1439038;98;21116;-84
2022/01/31 09:55:52;;;;;;;;;;;;;;;;;;;;;
2022/01/31 10:01:21;;;;;;;12.15;4.70;;;;;;;4.41;100.00;99208.09;1409171;99;21143;-84
2022/01/31 10:04:02;;;;;;;12.25;4.28;;;;;;;4.34;100.00;99208.30;1369800;104;21594;-84
2022/01/31 10:06:35;;;;;;;17.55;5.22;;;;;;;4.31;100.00;99210.14;1391180;99;21635;-84
2022/01/31 10:09:11;;;;;;;;;;;;;;;4.32;100.00;99203.23;1416689;99;21235;-84
2022/01/31 10:17:27;;;;;;;14.25;4.95;;;;;;;4.23;100.00;99194.06;1405083;100;21124;-83
2022/01/31 10:20:00;;;;;;;9.50;3.85;;;;;;;4.20;100.00;99195.90;1403457;100;22533;-84
2022/01/31 10:22:31;;;;;;;10.75;4.15;;;;;;;4.12;100.00;99195.55;1354269;104;21438;-83
2022/01/31 10:25:04;;;;;;;9.88;3.70;;;;;;;4.08;100.00;99202.72;1366039;103;21157;-83
2022/01/31 10:27:34;;;;;;;11.35;4.58;;;;;;;4.08;100.00;99210.71;1368041;103;21667;-84
2022/01/31 10:30:19;;;;;;;12.28;4.17;;;;;;;4.08;100.00;99212.05;1358186;101;21177;-85
2022/01/31 10:32:49;;;;;;;13.75;4.50;;;;;;;4.16;100.00;99202.00;1377454;102;21037;-84
2022/01/31 10:35:29;;;;;;;14.00;4.83;;;;;;;4.37;100.00;99205.66;1385734;101;21213;-84
2022/01/31 10:38:02;;;;;;;12.43;4.75;;;;;;;4.41;100.00;99198.75;1398467;100;21635;-84
2022/01/31 10:54:39;;;;;;;16.12;5.70;;;;;;;4.90;100.00;99186.59;1441638;98;21714;-83
2022/01/31 11:02:10;;;;;;;13.95;4.65;;;;;;;5.32;100.00;99197.77;1382578;103;21239;-84
2022/01/31 11:04:46;;;;;;;17.75;5.08;;;;;;;5.58;100.00;99186.67;1383539;103;21704;-83
2022/01/31 11:07:22;;;;;;;14.15;5.15;;;;;;;5.74;100.00;99196.91;1359546;103;21325;-84
2022/01/31 11:09:52;;;;;;;14.47;4.45;;;;;;;5.85;100.00;99194.00;1352308;104;21177;-83
2022/01/31 11:12:22;;;;;;;11.10;3.67;;;;;;;5.91;100.00;99194.79;1354029;104;21224;-83
2022/01/31 11:14:47;;;;;;;7.58;3.30;;;;;;;5.87;100.00;99192.38;1319238;106;21205;-83
2022/01/31 11:17:17;;;;;;;10.53;3.20;;;;;;;5.89;100.00;99200.95;1367100;103;21181;-83
2022/01/31 11:19:56;;;;;;;5.15;2.47;;;;;;;5.82;100.00;99202.52;1366653;105;21185;-81
2022/01/31 11:22:27;;;;;;;5.47;1.98;;;;;;;5.77;100.00;99205.73;1352130;104;21193;-83
2022/01/31 11:25:01;;;;;;;4.78;2.00;;;;;;;5.58;100.00;99218.20;1359702;103;21167;-83
2022/01/31 11:27:32;;;;;;;3.65;2.00;;;;;;;5.50;100.00;99216.56;1350832;104;21124;-83
2022/01/31 11:30:07;;;;;;;5.28;1.40;;;;;;;5.54;100.00;99223.01;1330261;106;21596;-85
2022/01/31 11:32:41;;;;;;;3.40;1.50;;;;;;;5.39;100.00;99223.73;1333772;106;21201;-81
2022/01/31 11:35:20;;;;;;;;;;;;;;;;;;;;;
2022/01/31 11:37:43;;;;;;;6.08;1.80;;;;;;;5.03;100.00;99224.03;1352430;104;21188;-81
2022/01/31 11:40:11;;;;;;;6.72;2.40;;;;;;;4.91;100.00;99225.05;1314830;107;21588;-82
2022/01/31 11:42:47;;;;;;;5.47;2.45;;;;;;;4.81;100.00;99229.50;1292076;110;21272;-82
2022/01/31 11:45:42;;;;;;;;;;;;;;;;;;;;;
2022/01/31 11:48:19;;;;;;;7.10;2.72;;;;;;;4.63;100.00;99238.17;1240093;112;21784;-82
2022/01/31 11:51:01;;;;;;;5.50;2.65;;;;;;;4.50;100.00;99235.91;1241235;114;21114;-82
2022/01/31 11:53:35;;;;;;;4.55;2.17;;;;;;;4.40;100.00;99229.95;1239885;115;21293;-80
2022/01/31 11:56:08;;;;;;;7.90;3.50;;;;;;;4.38;100.00;99233.93;1250170;112;21223;-80
2022/01/31 11:58:50;;;;;;;7.37;3.33;;;;;;;4.30;100.00;99248.54;1297692;109;28978;-80
2022/01/31 12:01:20;;;;;;;6.50;2.65;;;;;;;4.28;100.00;99244.78;1302859;109;21234;-80
2022/01/31 12:04:00;;;;;;;12.33;3.95;;;;;;;4.23;100.00;99244.72;1301659;109;21570;-80
2022/01/31 12:06:28;;;;;;;4.45;2.20;;;;;;;4.14;100.00;99231.56;1298948;110;21192;-80
2022/01/31 12:12:11;;;;;;;4.45;2.20;;;;;;;4.18;100.00;99249.22;1262516;113;21253;-79